createdAt,value
2024-02-19T00:04:59.824Z,0.79
2024-02-19T00:10:03.365Z,0.80
2024-02-19T00:15:07.343Z,0.81
2024-02-19T00:20:11.016Z,0.79
2024-02-19T00:25:14.119Z,0.82
2024-02-19T00:30:17.661Z,0.82
2024-02-19T00:35:22.414Z,0.81
2024-02-19T00:40:25.705Z,0.80
2024-02-19T00:45:28.711Z,0.77
2024-02-19T00:50:31.758Z,0.75
2024-02-19T00:55:34.814Z,0.75
2024-02-19T01:00:38.235Z,0.76
2024-02-19T01:05:41.534Z,0.77
2024-02-19T01:10:44.786Z,0.77
2024-02-19T01:15:47.955Z,0.77
2024-02-19T01:20:51.304Z,0.76
2024-02-19T01:25:54.446Z,0.74
2024-02-19T01:30:58.908Z,0.72
2024-02-19T01:36:02.191Z,0.73
2024-02-19T01:41:05.525Z,0.73
2024-02-19T01:46:08.538Z,0.73
2024-02-19T01:51:11.685Z,0.75
2024-02-19T01:56:14.748Z,0.75
2024-02-19T02:01:17.852Z,0.73
2024-02-19T02:06:24.103Z,0.70
2024-02-19T02:11:27.893Z,0.64
2024-02-19T02:16:31.123Z,0.58
2024-02-19T02:21:35.161Z,0.49
2024-02-19T02:26:40.208Z,0.45
2024-02-19T02:31:43.822Z,0.44
2024-02-19T02:36:46.892Z,0.39
2024-02-19T02:41:50.007Z,0.33
2024-02-19T02:46:53.168Z,0.27
2024-02-19T02:51:56.398Z,0.24
2024-02-19T02:57:00.020Z,0.22
2024-02-19T03:02:03.203Z,0.22
2024-02-19T03:07:06.456Z,0.23
2024-02-19T03:12:09.677Z,0.25
2024-02-19T03:17:13.136Z,0.28
2024-02-19T03:22:16.733Z,0.31
2024-02-19T03:27:19.840Z,0.35
2024-02-19T03:32:22.895Z,0.37
2024-02-19T03:37:26.759Z,0.38
2024-02-19T03:42:29.869Z,0.40
2024-02-19T03:47:33.168Z,0.42
2024-02-19T03:52:36.655Z,0.46
2024-02-19T03:57:40.513Z,0.48
2024-02-19T04:02:43.509Z,0.49
2024-02-19T04:07:46.583Z,0.48
2024-02-19T04:12:49.847Z,0.49
2024-02-19T04:17:53.188Z,0.47
2024-02-19T04:22:56.468Z,0.46
2024-02-19T04:27:59.521Z,0.44
2024-02-19T04:33:03.324Z,0.42
2024-02-19T04:38:06.593Z,0.39
2024-02-19T04:43:09.883Z,0.40
2024-02-19T04:48:13.099Z,0.38
2024-02-19T04:53:19.581Z,0.38
2024-02-19T04:58:22.917Z,0.39
2024-02-19T05:03:25.963Z,0.39
2024-02-19T05:08:29.443Z,0.40
2024-02-19T05:13:38.610Z,0.39
2024-02-19T05:18:41.620Z,0.40
2024-02-19T05:23:46.003Z,0.40
2024-02-19T05:28:49.077Z,0.39
2024-02-19T05:33:52.314Z,0.39
2024-02-19T05:38:55.421Z,0.41
2024-02-19T05:43:58.604Z,0.43
2024-02-19T05:49:01.735Z,0.44
2024-02-19T05:54:05.848Z,0.46
2024-02-19T05:59:08.932Z,0.47
2024-02-19T06:04:13.501Z,0.48
2024-02-19T06:09:17.804Z,0.49
2024-02-19T06:14:20.854Z,0.51
2024-02-19T06:19:24.160Z,0.54
2024-02-19T06:24:27.405Z,0.56
2024-02-19T06:29:30.543Z,0.58
2024-02-19T06:34:36.467Z,0.61
2024-02-19T06:39:41.652Z,0.65
2024-02-19T06:44:44.984Z,0.71
2024-02-19T06:49:48.094Z,0.75
2024-02-19T06:54:51.567Z,0.78
2024-02-19T06:59:54.756Z,0.85
2024-02-19T07:04:58.025Z,0.94
2024-02-19T07:10:01.500Z,1.03
2024-02-19T07:15:05.693Z,1.18
2024-02-19T07:20:10.174Z,1.31
2024-02-19T07:25:20.309Z,1.39
2024-02-19T07:30:25.389Z,1.47
2024-02-19T07:35:28.339Z,1.57
2024-02-19T07:40:35.297Z,1.67
2024-02-19T07:45:39.071Z,1.79
2024-02-19T07:50:42.855Z,1.89
2024-02-19T07:55:46.152Z,1.99
2024-02-19T08:00:49.952Z,2.04
2024-02-19T08:05:53.089Z,2.11
2024-02-19T08:10:57.133Z,2.16
2024-02-19T08:16:00.243Z,2.24
2024-02-19T08:21:03.675Z,2.32
2024-02-19T08:26:06.773Z,2.39
2024-02-19T08:31:09.932Z,2.47
2024-02-19T08:36:13.311Z,2.57
2024-02-19T08:41:16.496Z,2.66
2024-02-19T08:46:19.890Z,2.79
2024-02-19T08:51:25.030Z,2.91
2024-02-19T08:56:28.624Z,3.04
2024-02-19T09:01:31.830Z,3.15
2024-02-19T09:06:34.974Z,3.25
2024-02-19T09:11:38.153Z,3.31
2024-02-19T09:16:41.332Z,3.34
2024-02-19T09:21:45.894Z,3.38
2024-02-19T09:26:49.132Z,3.43
2024-02-19T09:31:52.818Z,3.47
2024-02-19T09:36:56.021Z,3.53
2024-02-19T09:41:59.064Z,3.63
2024-02-19T09:47:06.114Z,3.74
2024-02-19T09:52:09.622Z,3.83
2024-02-19T09:57:12.655Z,3.83
2024-02-19T10:02:20.064Z,3.84
2024-02-19T10:07:23.413Z,3.80
2024-02-19T10:12:26.695Z,3.79
2024-02-19T10:17:30.817Z,3.77
2024-02-19T10:22:34.831Z,3.71
2024-02-19T10:27:38.969Z,3.64
2024-02-19T10:32:42.861Z,3.58
2024-02-19T10:37:46.105Z,3.51
2024-02-19T10:42:49.231Z,3.45
2024-02-19T10:47:53.317Z,3.41
2024-02-19T10:52:56.757Z,3.36
2024-02-19T10:57:59.893Z,3.29
2024-02-19T11:03:07.425Z,3.26
2024-02-19T11:08:24.260Z,3.21
2024-02-19T11:13:28.607Z,3.18
2024-02-19T11:18:32.987Z,3.19
2024-02-19T11:23:36.262Z,3.21
2024-02-19T11:28:39.466Z,3.24
2024-02-19T11:33:43.080Z,3.26
2024-02-19T11:38:47.409Z,3.24
2024-02-19T11:43:50.785Z,3.24
2024-02-19T11:48:54.039Z,3.24
2024-02-19T11:53:58.081Z,3.22
2024-02-19T11:59:01.208Z,3.20
2024-02-19T12:04:05.178Z,3.16
2024-02-19T12:09:09.545Z,3.13
2024-02-19T12:14:14.285Z,3.16
2024-02-19T12:19:17.585Z,3.07
2024-02-19T12:24:20.713Z,2.95
2024-02-19T12:29:23.841Z,2.90
2024-02-19T12:34:27.024Z,2.88
2024-02-19T12:39:32.054Z,2.87
2024-02-19T12:44:55.501Z,2.90
2024-02-19T12:49:59.415Z,2.88
2024-02-19T12:55:02.567Z,2.91
2024-02-19T13:00:09.954Z,2.92
2024-02-19T13:05:13.125Z,2.92
2024-02-19T13:10:16.390Z,2.93
2024-02-19T13:15:20.689Z,2.95
2024-02-19T13:20:23.953Z,2.94
2024-02-19T13:25:27.536Z,2.95
2024-02-19T13:30:30.853Z,2.94
2024-02-19T13:35:34.671Z,2.94
2024-02-19T13:40:38.307Z,2.97
2024-02-19T13:46:02.898Z,2.97
2024-02-19T13:51:06.783Z,2.99
2024-02-19T13:56:09.879Z,2.99
2024-02-19T14:01:13.138Z,3.03
2024-02-19T14:06:17.435Z,3.06
2024-02-19T14:11:22.310Z,3.08
2024-02-19T14:16:25.740Z,3.07
2024-02-19T14:21:29.868Z,3.05
2024-02-19T14:26:33.179Z,3.06
2024-02-19T14:31:36.429Z,3.08
2024-02-19T14:36:39.881Z,3.10
2024-02-19T14:41:43.013Z,3.13
2024-02-19T14:46:51.917Z,3.15
2024-02-19T14:52:01.627Z,3.16
2024-02-19T14:57:05.132Z,3.16
2024-02-19T15:02:08.354Z,3.18
2024-02-19T15:07:11.589Z,3.20
2024-02-19T15:12:14.663Z,3.22
2024-02-19T15:17:18.609Z,3.23
2024-02-19T15:22:21.717Z,3.23
2024-02-19T15:27:27.847Z,3.23
2024-02-19T15:32:31.810Z,3.28
2024-02-19T15:37:35.211Z,3.29
2024-02-19T15:42:38.958Z,3.29
2024-02-19T15:47:42.135Z,3.31
2024-02-19T15:52:54.927Z,3.35
2024-02-19T15:58:02.049Z,3.35
2024-02-19T16:03:06.513Z,3.34
2024-02-19T16:08:32.507Z,3.36
2024-02-19T16:13:35.976Z,3.36
2024-02-19T16:18:39.890Z,3.41
2024-02-19T16:23:45.106Z,3.44
2024-02-19T16:28:48.734Z,3.49
2024-02-19T16:33:52.423Z,3.55
2024-02-19T16:38:56.064Z,3.61
2024-02-19T16:43:59.252Z,3.66
2024-02-19T16:49:02.453Z,3.70
2024-02-19T16:54:06.180Z,3.76
2024-02-19T16:59:09.120Z,3.82
2024-02-19T17:04:12.341Z,3.88
2024-02-19T17:09:16.430Z,3.92
2024-02-19T17:14:19.424Z,4.00
2024-02-19T17:19:22.858Z,4.05
2024-02-19T17:24:28.427Z,4.11
2024-02-19T17:29:31.837Z,4.16
2024-02-19T17:34:34.931Z,4.24
2024-02-19T17:39:38.099Z,4.35
2024-02-19T17:44:41.196Z,4.44
2024-02-19T17:49:45.986Z,4.51
2024-02-19T17:54:49.332Z,4.57
2024-02-19T17:59:52.378Z,4.64
2024-02-19T18:04:55.702Z,4.75
2024-02-19T18:09:58.903Z,4.86
2024-02-19T18:15:02.104Z,5.00
2024-02-19T18:20:08.497Z,5.15
2024-02-19T18:25:11.604Z,5.26
2024-02-19T18:30:14.813Z,5.38
2024-02-19T18:35:18.730Z,5.48
2024-02-19T18:40:21.999Z,5.54
2024-02-19T18:45:27.685Z,5.56
2024-02-19T18:50:31.946Z,5.58
2024-02-19T18:55:36.062Z,5.58
2024-02-19T19:00:40.450Z,5.60
2024-02-19T19:05:43.724Z,5.59
2024-02-19T19:10:46.908Z,5.61
2024-02-19T19:15:50.356Z,5.61
2024-02-19T19:20:53.574Z,5.60
2024-02-19T19:25:57.612Z,5.59
2024-02-19T19:31:00.653Z,5.59
2024-02-19T19:36:04.698Z,5.56
2024-02-19T19:41:10.372Z,5.50
2024-02-19T19:46:15.952Z,5.43
2024-02-19T19:51:19.676Z,5.31
2024-02-19T19:56:22.748Z,5.27
2024-02-19T20:01:25.865Z,5.21
2024-02-19T20:06:29.316Z,5.17
2024-02-19T20:11:32.623Z,5.16
2024-02-19T20:16:42.071Z,5.12
2024-02-19T20:21:45.198Z,5.10
2024-02-19T20:26:48.307Z,5.08
2024-02-19T20:31:51.328Z,5.05
2024-02-19T20:36:54.275Z,5.01
2024-02-19T20:41:57.333Z,4.96
2024-02-19T20:47:00.770Z,4.92
2024-02-19T20:52:06.296Z,4.89
2024-02-19T20:57:09.704Z,4.85
2024-02-19T21:02:13.824Z,4.84
2024-02-19T21:07:17.955Z,4.82
2024-02-19T21:12:21.788Z,4.79
2024-02-19T21:17:29.946Z,4.75
2024-02-19T21:22:33.379Z,4.74
2024-02-19T21:27:36.716Z,4.71
2024-02-19T21:32:39.948Z,4.73
2024-02-19T21:37:43.567Z,4.74
2024-02-19T21:42:47.728Z,4.74
2024-02-19T21:47:50.897Z,4.74
2024-02-19T21:52:54.794Z,4.73
2024-02-19T21:57:58.196Z,4.71
2024-02-19T22:03:01.180Z,4.71
2024-02-19T22:08:04.669Z,4.71
2024-02-19T22:13:08.004Z,4.72
2024-02-19T22:18:11.437Z,4.70
2024-02-19T22:23:14.735Z,4.71
2024-02-19T22:28:17.859Z,4.71
2024-02-19T22:33:20.966Z,4.75
2024-02-19T22:38:24.115Z,4.73
2024-02-19T22:43:27.908Z,4.68
2024-02-19T22:48:32.011Z,4.66
2024-02-19T22:53:35.138Z,4.63
2024-02-19T22:58:38.335Z,4.60
2024-02-19T23:03:41.453Z,4.60
2024-02-19T23:08:44.532Z,4.59
2024-02-19T23:13:47.565Z,4.58
2024-02-19T23:18:51.690Z,4.57
2024-02-19T23:23:54.937Z,4.55
2024-02-19T23:28:58.105Z,4.56
2024-02-19T23:34:02.020Z,4.63
2024-02-19T23:39:06.002Z,4.62
2024-02-19T23:44:08.994Z,4.61
2024-02-19T23:49:15.313Z,4.64
2024-02-19T23:54:18.336Z,4.65
2024-02-19T23:59:21.800Z,4.65
